sensor_id;sensor_type;location;lat;lon;timestamp;pressure;altitude;pressure_sealevel;temperature;humidity
13732;BME280;6937;56.096;12.664;2024-02-15T00:00:03;101594.72;;;5.85;100.00
13732;BME280;6937;56.096;12.664;2024-02-15T00:02:29;101601.03;;;5.83;100.00
13732;BME280;6937;56.096;12.664;2024-02-15T00:04:54;101605.72;;;5.76;100.00
13732;BME280;6937;56.096;12.664;2024-02-15T00:07:21;101608.41;;;5.75;100.00
13732;BME280;6937;56.096;12.664;2024-02-15T00:09:48;101610.16;;;5.76;100.00
13732;BME280;6937;56.096;12.664;2024-02-15T00:12:13;101613.66;;;5.76;100.00
13732;BME280;6937;56.096;12.664;2024-02-15T00:14:38;101615.44;;;5.76;100.00
13732;BME280;6937;56.096;12.664;2024-02-15T00:17:04;101611.94;;;5.75;100.00
13732;BME280;6937;56.096;12.664;2024-02-15T00:19:30;101616.16;;;5.81;100.00
13732;BME280;6937;56.096;12.664;2024-02-15T00:21:56;101618.84;;;5.79;100.00
13732;BME280;6937;56.096;12.664;2024-02-15T00:24:22;101608.25;;;5.79;100.00
13732;BME280;6937;56.096;12.664;2024-02-15T00:26:49;101606.44;;;5.80;100.00
13732;BME280;6937;56.096;12.664;2024-02-15T00:29:15;101611.75;;;5.80;100.00
13732;BME280;6937;56.096;12.664;2024-02-15T00:31:40;101623.28;;;5.79;100.00
13732;BME280;6937;56.096;12.664;2024-02-15T00:34:06;101621.50;;;5.79;100.00
13732;BME280;6937;56.096;12.664;2024-02-15T00:36:31;101624.91;;;5.83;100.00
13732;BME280;6937;56.096;12.664;2024-02-15T00:39:00;101618.88;;;5.78;100.00
13732;BME280;6937;56.096;12.664;2024-02-15T00:41:25;101618.03;;;5.77;100.00
13732;BME280;6937;56.096;12.664;2024-02-15T00:43:51;101624.19;;;5.78;100.00
13732;BME280;6937;56.096;12.664;2024-02-15T00:46:16;101611.81;;;5.78;100.00
13732;BME280;6937;56.096;12.664;2024-02-15T00:48:41;101611.13;;;5.73;100.00
13732;BME280;6937;56.096;12.664;2024-02-15T00:51:07;101615.44;;;5.76;100.00
13732;BME280;6937;56.096;12.664;2024-02-15T00:53:33;101604.88;;;5.74;100.00
13732;BME280;6937;56.096;12.664;2024-02-15T00:55:58;101612.06;;;5.72;100.00
13732;BME280;6937;56.096;12.664;2024-02-15T00:58:24;101608.41;;;5.75;100.00
13732;BME280;6937;56.096;12.664;2024-02-15T01:00:52;101602.47;;;5.68;100.00
13732;BME280;6937;56.096;12.664;2024-02-15T01:03:18;101622.72;;;5.71;100.00
13732;BME280;6937;56.096;12.664;2024-02-15T01:05:44;101614.72;;;5.72;100.00
13732;BME280;6937;56.096;12.664;2024-02-15T01:08:10;101619.13;;;5.72;100.00
13732;BME280;6937;56.096;12.664;2024-02-15T01:10:36;101611.31;;;5.69;100.00
13732;BME280;6937;56.096;12.664;2024-02-15T01:13:02;101607.84;;;5.67;100.00
13732;BME280;6937;56.096;12.664;2024-02-15T01:15:27;101610.56;;;5.65;100.00
13732;BME280;6937;56.096;12.664;2024-02-15T01:17:54;101615.78;;;5.67;100.00
13732;BME280;6937;56.096;12.664;2024-02-15T01:20:19;101614.13;;;5.64;100.00
13732;BME280;6937;56.096;12.664;2024-02-15T01:22:46;101628.09;;;5.69;100.00
13732;BME280;6937;56.096;12.664;2024-02-15T01:25:11;101632.44;;;5.70;100.00
13732;BME280;6937;56.096;12.664;2024-02-15T01:27:38;101640.22;;;5.75;100.00
13732;BME280;6937;56.096;12.664;2024-02-15T01:30:04;101640.19;;;5.76;100.00
13732;BME280;6937;56.096;12.664;2024-02-15T01:32:30;101635.69;;;5.78;100.00
13732;BME280;6937;56.096;12.664;2024-02-15T01:34:56;101636.59;;;5.77;100.00
13732;BME280;6937;56.096;12.664;2024-02-15T01:37:22;101637.41;;;5.79;100.00
13732;BME280;6937;56.096;12.664;2024-02-15T01:39:47;101621.38;;;5.82;100.00
13732;BME280;6937;56.096;12.664;2024-02-15T01:42:13;101626.75;;;5.81;100.00
13732;BME280;6937;56.096;12.664;2024-02-15T01:44:42;101618.81;;;5.81;100.00
13732;BME280;6937;56.096;12.664;2024-02-15T01:47:10;101608.38;;;5.76;100.00
13732;BME280;6937;56.096;12.664;2024-02-15T01:49:36;101614.53;;;5.77;100.00
13732;BME280;6937;56.096;12.664;2024-02-15T01:52:02;101602.31;;;5.73;100.00
13732;BME280;6937;56.096;12.664;2024-02-15T01:54:29;101609.09;;;5.80;100.00
13732;BME280;6937;56.096;12.664;2024-02-15T01:56:57;101602.19;;;5.76;100.00
13732;BME280;6937;56.096;12.664;2024-02-15T01:59:23;101608.25;;;5.79;100.00
13732;BME280;6937;56.096;12.664;2024-02-15T02:01:48;101602.97;;;5.78;100.00
13732;BME280;6937;56.096;12.664;2024-02-15T02:04:14;101606.44;;;5.80;100.00
13732;BME280;6937;56.096;12.664;2024-02-15T02:06:39;101611.81;;;5.78;100.00
13732;BME280;6937;56.096;12.664;2024-02-15T02:09:06;101605.47;;;5.82;100.00
13732;BME280;6937;56.096;12.664;2024-02-15T02:11:35;101609.91;;;5.82;100.00
13732;BME280;6937;56.096;12.664;2024-02-15T02:14:00;101606.31;;;5.83;100.00
13732;BME280;6937;56.096;12.664;2024-02-15T02:16:30;101599.16;;;5.85;100.00
13732;BME280;6937;56.096;12.664;2024-02-15T02:19:00;101600.09;;;5.84;100.00
13732;BME280;6937;56.096;12.664;2024-02-15T02:21:27;101596.72;;;5.80;100.00
13732;BME280;6937;56.096;12.664;2024-02-15T02:23:56;101592.19;;;5.82;100.00
13732;BME280;6937;56.096;12.664;2024-02-15T02:26:22;101593.84;;;5.85;100.00
13732;BME280;6937;56.096;12.664;2024-02-15T02:28:48;101591.19;;;5.85;100.00
13732;BME280;6937;56.096;12.664;2024-02-15T02:31:14;101589.53;;;5.82;100.00
13732;BME280;6937;56.096;12.664;2024-02-15T02:33:41;101577.19;;;5.81;100.00
13732;BME280;6937;56.096;12.664;2024-02-15T02:36:07;101594.84;;;5.82;100.00
13732;BME280;6937;56.096;12.664;2024-02-15T02:38:35;101600.09;;;5.84;100.00
13732;BME280;6937;56.096;12.664;2024-02-15T02:41:04;101601.03;;;5.83;100.00
13732;BME280;6937;56.096;12.664;2024-02-15T02:43:29;101602.00;;;5.80;100.00
13732;BME280;6937;56.096;12.664;2024-02-15T02:45:54;101593.31;;;5.77;100.00
13732;BME280;6937;56.096;12.664;2024-02-15T02:48:20;101603.94;;;5.77;100.00
13732;BME280;6937;56.096;12.664;2024-02-15T02:50:47;101608.25;;;5.79;100.00
13732;BME280;6937;56.096;12.664;2024-02-15T02:53:13;101602.88;;;5.81;100.00
13732;BME280;6937;56.096;12.664;2024-02-15T02:55:41;101602.00;;;5.80;100.00
13732;BME280;6937;56.096;12.664;2024-02-15T02:58:06;101609.16;;;5.78;100.00
13732;BME280;6937;56.096;12.664;2024-02-15T03:00:32;101599.47;;;5.77;100.00
13732;BME280;6937;56.096;12.664;2024-02-15T03:02:58;101600.41;;;5.76;100.00
13732;BME280;6937;56.096;12.664;2024-02-15T03:05:25;101597.81;;;5.75;100.00
13732;BME280;6937;56.096;12.664;2024-02-15T03:07:50;101603.94;;;5.77;100.00
13732;BME280;6937;56.096;12.664;2024-02-15T03:10:16;101598.72;;;5.74;100.00
13732;BME280;6937;56.096;12.664;2024-02-15T03:12:43;101601.38;;;5.74;100.00
13732;BME280;6937;56.096;12.664;2024-02-15T03:15:12;101603.09;;;5.75;100.00
13732;BME280;6937;56.096;12.664;2024-02-15T03:17:39;101592.50;;;5.75;100.00
13732;BME280;6937;56.096;12.664;2024-02-15T03:20:06;101588.94;;;5.76;100.00
13732;BME280;6937;56.096;12.664;2024-02-15T03:22:36;101596.06;;;5.74;100.00
13732;BME280;6937;56.096;12.664;2024-02-15T03:25:04;101590.75;;;5.74;100.00
13732;BME280;6937;56.096;12.664;2024-02-15T03:27:36;101594.34;;;5.73;100.00
13732;BME280;6937;56.096;12.664;2024-02-15T03:30:02;101597.88;;;5.73;100.00
13732;BME280;6937;56.096;12.664;2024-02-15T03:32:29;101597.94;;;5.72;100.00
13732;BME280;6937;56.096;12.664;2024-02-15T03:34:54;101587.44;;;5.69;100.00
13732;BME280;6937;56.096;12.664;2024-02-15T03:37:20;101600.31;;;5.78;100.00
13732;BME280;6937;56.096;12.664;2024-02-15T03:39:46;101605.53;;;5.81;100.00
13732;BME280;6937;56.096;12.664;2024-02-15T03:42:12;101595.75;;;5.81;100.00
13732;BME280;6937;56.096;12.664;2024-02-15T03:44:37;101597.63;;;5.79;100.00
13732;BME280;6937;56.096;12.664;2024-02-15T03:47:06;101595.88;;;5.78;100.00
13732;BME280;6937;56.096;12.664;2024-02-15T03:49:32;101597.63;;;5.79;100.00
13732;BME280;6937;56.096;12.664;2024-02-15T03:51:58;101603.84;;;5.78;100.00
13732;BME280;6937;56.096;12.664;2024-02-15T03:54:25;101606.31;;;5.83;100.00
13732;BME280;6937;56.096;12.664;2024-02-15T03:56:51;101605.31;;;5.87;100.00
13732;BME280;6937;56.096;12.664;2024-02-15T03:59:19;101610.38;;;5.93;100.00
13732;BME280;6937;56.096;12.664;2024-02-15T04:01:50;101602.34;;;5.95;100.00
13732;BME280;6937;56.096;12.664;2024-02-15T04:04:16;101607.72;;;5.93;100.00
13732;BME280;6937;56.096;12.664;2024-02-15T04:06:41;101603.28;;;5.94;100.00
13732;BME280;6937;56.096;12.664;2024-02-15T04:09:08;101612.06;;;5.96;100.00
13732;BME280;6937;56.096;12.664;2024-02-15T04:11:33;101613.75;;;5.97;100.00
13732;BME280;6937;56.096;12.664;2024-02-15T04:13:59;101616.25;;;6.01;100.00
13732;BME280;6937;56.096;12.664;2024-02-15T04:16:24;101614.41;;;6.03;100.00
13732;BME280;6937;56.096;12.664;2024-02-15T04:18:51;101603.84;;;6.02;100.00
13732;BME280;6937;56.096;12.664;2024-02-15T04:21:16;101606.53;;;6.00;100.00
13732;BME280;6937;56.096;12.664;2024-02-15T04:23:45;101604.00;;;5.97;100.00
13732;BME280;6937;56.096;12.664;2024-02-15T04:26:10;101603.06;;;6.00;100.00
13732;BME280;6937;56.096;12.664;2024-02-15T04:28:39;101602.97;;;6.01;100.00
13732;BME280;6937;56.096;12.664;2024-02-15T04:31:04;101607.28;;;6.04;100.00
13732;BME280;6937;56.096;12.664;2024-02-15T04:33:33;101603.66;;;6.06;100.00
13732;BME280;6937;56.096;12.664;2024-02-15T04:35:58;101603.72;;;6.05;100.00
13732;BME280;6937;56.096;12.664;2024-02-15T04:38:27;101613.34;;;6.07;100.00
13732;BME280;6937;56.096;12.664;2024-02-15T04:40:52;101612.41;;;6.08;100.00
13732;BME280;6937;56.096;12.664;2024-02-15T04:43:19;101611.50;;;6.09;100.00
13732;BME280;6937;56.096;12.664;2024-02-15T04:45:44;101608.84;;;6.09;100.00
13732;BME280;6937;56.096;12.664;2024-02-15T04:48:11;101610.72;;;6.07;100.00
13732;BME280;6937;56.096;12.664;2024-02-15T04:50:39;101608.84;;;6.09;100.00
13732;BME280;6937;56.096;12.664;2024-02-15T04:53:08;101610.72;;;6.07;100.00
13732;BME280;6937;56.096;12.664;2024-02-15T04:55:34;101615.88;;;6.10;100.00
13732;BME280;6937;56.096;12.664;2024-02-15T04:58:01;101614.09;;;6.11;100.00
13732;BME280;6937;56.096;12.664;2024-02-15T05:00:26;101614.16;;;6.09;100.00
13732;BME280;6937;56.096;12.664;2024-02-15T05:02:52;101616.75;;;6.11;100.00
13732;BME280;6937;56.096;12.664;2024-02-15T05:05:18;101629.75;;;6.17;100.00
13732;BME280;6937;56.096;12.664;2024-02-15T05:07:43;101623.53;;;6.18;100.00
13732;BME280;6937;56.096;12.664;2024-02-15T05:10:09;101617.41;;;6.16;100.00
13732;BME280;6937;56.096;12.664;2024-02-15T05:12:35;101624.50;;;6.15;100.00
13732;BME280;6937;56.096;12.664;2024-02-15T05:15:00;101633.34;;;6.16;100.00
13732;BME280;6937;56.096;12.664;2024-02-15T05:17:26;101634.16;;;6.18;100.00
13732;BME280;6937;56.096;12.664;2024-02-15T05:19:55;101627.06;;;6.18;100.00
13732;BME280;6937;56.096;12.664;2024-02-15T05:22:25;101626.97;;;6.20;100.00
13732;BME280;6937;56.096;12.664;2024-02-15T05:24:54;101623.53;;;6.18;100.00
13732;BME280;6937;56.096;12.664;2024-02-15T05:27:20;101626.97;;;6.20;100.00
13732;BME280;6937;56.096;12.664;2024-02-15T05:29:45;101629.63;;;6.20;100.00
13732;BME280;6937;56.096;12.664;2024-02-15T05:32:10;101627.91;;;6.19;100.00
13732;BME280;6937;56.096;12.664;2024-02-15T05:34:36;101622.66;;;6.17;100.00
13732;BME280;6937;56.096;12.664;2024-02-15T05:37:05;101608.53;;;6.17;100.00
13732;BME280;6937;56.096;12.664;2024-02-15T05:39:32;101604.22;;;6.14;100.00
13732;BME280;6937;56.096;12.664;2024-02-15T05:41:57;101610.44;;;6.13;100.00
13732;BME280;6937;56.096;12.664;2024-02-15T05:44:26;101614.94;;;6.11;100.00
13732;BME280;6937;56.096;12.664;2024-02-15T05:46:51;101615.06;;;6.08;100.00
13732;BME280;6937;56.096;12.664;2024-02-15T05:49:16;101612.59;;;6.04;100.00
13732;BME280;6937;56.096;12.664;2024-02-15T05:51:43;101606.38;;;6.05;100.00
13732;BME280;6937;56.096;12.664;2024-02-15T05:54:08;101607.19;;;6.07;100.00
13732;BME280;6937;56.096;12.664;2024-02-15T05:56:34;101618.66;;;6.07;100.00
13732;BME280;6937;56.096;12.664;2024-02-15T05:58:59;101616.84;;;6.08;100.00
13732;BME280;6937;56.096;12.664;2024-02-15T06:01:27;101619.41;;;6.11;100.00
13732;BME280;6937;56.096;12.664;2024-02-15T06:03:54;101614.03;;;6.12;100.00
13732;BME280;6937;56.096;12.664;2024-02-15T06:06:21;101620.25;;;6.11;100.00
13732;BME280;6937;56.096;12.664;2024-02-15T06:08:46;101619.41;;;6.11;100.00
13732;BME280;6937;56.096;12.664;2024-02-15T06:11:13;101613.16;;;6.12;100.00
13732;BME280;6937;56.096;12.664;2024-02-15T06:13:39;101612.19;;;6.14;100.00
13732;BME280;6937;56.096;12.664;2024-02-15T06:16:06;101610.44;;;6.13;100.00
13732;BME280;6937;56.096;12.664;2024-02-15T06:18:34;101609.75;;;6.08;100.00
13732;BME280;6937;56.096;12.664;2024-02-15T06:21:00;101612.34;;;6.10;100.00
13732;BME280;6937;56.096;12.664;2024-02-15T06:23:26;101603.47;;;6.11;100.00
13732;BME280;6937;56.096;12.664;2024-02-15T06:25:54;101610.56;;;6.10;100.00
13732;BME280;6937;56.096;12.664;2024-02-15T06:28:20;101616.75;;;6.11;100.00
13732;BME280;6937;56.096;12.664;2024-02-15T06:31:05;101624.75;;;6.09;100.00
13732;BME280;6937;56.096;12.664;2024-02-15T06:33:49;101622.09;;;6.09;100.00
13732;BME280;6937;56.096;12.664;2024-02-15T06:36:33;101633.47;;;6.13;100.00
13732;BME280;6937;56.096;12.664;2024-02-15T06:39:17;101635.44;;;6.08;100.00
13732;BME280;6937;56.096;12.664;2024-02-15T06:42:01;101628.16;;;6.13;100.00
13732;BME280;6937;56.096;12.664;2024-02-15T06:44:27;101628.19;;;6.11;100.00
13732;BME280;6937;56.096;12.664;2024-02-15T06:46:53;101634.50;;;6.09;100.00
13732;BME280;6937;56.096;12.664;2024-02-15T06:49:19;101630.06;;;6.09;100.00
13732;BME280;6937;56.096;12.664;2024-02-15T06:51:47;101643.94;;;6.16;100.00
13732;BME280;6937;56.096;12.664;2024-02-15T06:54:13;101647.44;;;6.18;100.00
13732;BME280;6937;56.096;12.664;2024-02-15T06:56:38;101647.28;;;6.21;100.00
13732;BME280;6937;56.096;12.664;2024-02-15T06:59:08;101642.03;;;6.19;100.00
13732;BME280;6937;56.096;12.664;2024-02-15T07:01:35;101648.16;;;6.21;100.00
13732;BME280;6937;56.096;12.664;2024-02-15T07:04:00;101637.53;;;6.21;100.00
13732;BME280;6937;56.096;12.664;2024-02-15T07:06:28;101648.94;;;6.23;100.00
13732;BME280;6937;56.096;12.664;2024-02-15T07:08:54;101642.84;;;6.21;100.00
13732;BME280;6937;56.096;12.664;2024-02-15T07:11:21;101643.50;;;6.26;100.00
13732;BME280;6937;56.096;12.664;2024-02-15T07:13:47;101648.72;;;6.29;100.00
13732;BME280;6937;56.096;12.664;2024-02-15T07:16:13;101651.28;;;6.31;100.00
13732;BME280;6937;56.096;12.664;2024-02-15T07:18:40;101646.00;;;6.31;100.00
13732;BME280;6937;56.096;12.664;2024-02-15T07:21:06;101646.13;;;6.28;100.00
13732;BME280;6937;56.096;12.664;2024-02-15T07:23:36;101643.41;;;6.29;100.00
13732;BME280;6937;56.096;12.664;2024-02-15T07:26:02;101653.91;;;6.32;100.00
13732;BME280;6937;56.096;12.664;2024-02-15T07:28:29;101654.63;;;6.36;100.00
13732;BME280;6937;56.096;12.664;2024-02-15T07:30:56;101643.19;;;6.34;100.00
13732;BME280;6937;56.096;12.664;2024-02-15T07:33:24;101642.28;;;6.35;100.00
13732;BME280;6937;56.096;12.664;2024-02-15T07:35:49;101653.81;;;6.34;100.00
13732;BME280;6937;56.096;12.664;2024-02-15T07:38:19;101650.94;;;6.40;100.00
13732;BME280;6937;56.096;12.664;2024-02-15T07:40:44;101654.47;;;6.41;100.00
13732;BME280;6937;56.096;12.664;2024-02-15T07:43:10;101665.81;;;6.44;100.00
13732;BME280;6937;56.096;12.664;2024-02-15T07:45:35;101655.19;;;6.44;100.00
13732;BME280;6937;56.096;12.664;2024-02-15T07:48:03;101662.91;;;6.50;100.00
13732;BME280;6937;56.096;12.664;2024-02-15T07:50:32;101655.75;;;6.52;100.00
13732;BME280;6937;56.096;12.664;2024-02-15T07:52:58;101670.72;;;6.53;100.00
13732;BME280;6937;56.096;12.664;2024-02-15T07:55:23;101665.38;;;6.55;100.00
13732;BME280;6937;56.096;12.664;2024-02-15T07:57:50;101660.84;;;6.57;100.00
13732;BME280;6937;56.096;12.664;2024-02-15T08:00:16;101668.56;;;6.63;100.00
13732;BME280;6937;56.096;12.664;2024-02-15T08:02:45;101657.81;;;6.66;100.00
13732;BME280;6937;56.096;12.664;2024-02-15T08:05:11;101651.63;;;6.65;100.00
13732;BME280;6937;56.096;12.664;2024-02-15T08:07:40;101650.63;;;6.68;100.00
13732;BME280;6937;56.096;12.664;2024-02-15T08:10:06;101651.59;;;6.67;100.00
13732;BME280;6937;56.096;12.664;2024-02-15T08:12:38;101647.06;;;6.69;100.00
13732;BME280;6937;56.096;12.664;2024-02-15T08:15:04;101653.28;;;6.68;100.00
13732;BME280;6937;56.096;12.664;2024-02-15T08:17:30;101665.47;;;6.73;100.00
13732;BME280;6937;56.096;12.664;2024-02-15T08:19:55;101660.94;;;6.75;100.00
13732;BME280;6937;56.096;12.664;2024-02-15T08:22:21;101660.94;;;6.75;100.00
13732;BME280;6937;56.096;12.664;2024-02-15T08:24:51;101659.84;;;6.81;100.00
13732;BME280;6937;56.096;12.664;2024-02-15T08:27:17;101665.78;;;6.86;100.00
13732;BME280;6937;56.096;12.664;2024-02-15T08:29:42;101673.56;;;6.91;100.00
13732;BME280;6937;56.096;12.664;2024-02-15T08:32:08;101668.22;;;6.92;100.00
13732;BME280;6937;56.096;12.664;2024-02-15T08:34:33;101666.34;;;6.94;100.00
13732;BME280;6937;56.096;12.664;2024-02-15T08:36:59;101669.72;;;6.98;100.00
13732;BME280;6937;56.096;12.664;2024-02-15T08:39:24;101670.59;;;6.98;100.00
13732;BME280;6937;56.096;12.664;2024-02-15T08:41:50;101661.69;;;6.99;100.00
13732;BME280;6937;56.096;12.664;2024-02-15T08:44:18;101661.75;;;6.98;100.00
13732;BME280;6937;56.096;12.664;2024-02-15T08:46:44;101677.47;;;7.04;100.00
13732;BME280;6937;56.096;12.664;2024-02-15T08:49:10;101673.78;;;7.06;100.00
13732;BME280;6937;56.096;12.664;2024-02-15T08:51:38;101671.13;;;7.06;100.00
13732;BME280;6937;56.096;12.664;2024-02-15T08:54:04;101673.78;;;7.06;100.00
13732;BME280;6937;56.096;12.664;2024-02-15T08:56:29;101680.75;;;7.09;100.00
13732;BME280;6937;56.096;12.664;2024-02-15T08:58:55;101687.91;;;7.08;100.00
13732;BME280;6937;56.096;12.664;2024-02-15T09:01:22;101671.94;;;7.08;100.00
13732;BME280;6937;56.096;12.664;2024-02-15T09:03:48;101684.97;;;7.14;100.00
13732;BME280;6937;56.096;12.664;2024-02-15T09:06:13;101685.81;;;7.15;100.00
13732;BME280;6937;56.096;12.664;2024-02-15T09:08:40;101687.56;;;7.16;100.00
13732;BME280;6937;56.096;12.664;2024-02-15T09:11:05;101696.28;;;7.19;100.00
13732;BME280;6937;56.096;12.664;2024-02-15T09:13:30;101698.78;;;7.22;100.00
13732;BME280;6937;56.096;12.664;2024-02-15T09:15:57;101691.72;;;7.21;100.00
13732;BME280;6937;56.096;12.664;2024-02-15T09:18:23;101695.13;;;7.25;100.00
13732;BME280;6937;56.096;12.664;2024-02-15T09:20:48;101687.09;;;7.26;100.00
13732;BME280;6937;56.096;12.664;2024-02-15T09:23:20;101681.63;;;7.29;100.00
13732;BME280;6937;56.096;12.664;2024-02-15T09:25:45;101683.13;;;7.35;100.00
13732;BME280;6937;56.096;12.664;2024-02-15T09:28:11;101677.75;;;7.37;100.00
13732;BME280;6937;56.096;12.664;2024-02-15T09:30:37;101683.88;;;7.39;100.00
13732;BME280;6937;56.096;12.664;2024-02-15T09:33:03;101685.34;;;7.46;100.00
13732;BME280;6937;56.096;12.664;2024-02-15T09:35:31;101686.06;;;7.49;100.00
13732;BME280;6937;56.096;12.664;2024-02-15T09:37:57;101682.97;;;7.58;100.00
13732;BME280;6937;56.096;12.664;2024-02-15T09:40:23;101672.28;;;7.60;100.00
13732;BME280;6937;56.096;12.664;2024-02-15T09:42:54;101677.50;;;7.61;100.00
13732;BME280;6937;56.096;12.664;2024-02-15T09:45:19;101674.00;;;7.61;100.00
13732;BME280;6937;56.096;12.664;2024-02-15T09:47:46;101674.94;;;7.60;100.00
13732;BME280;6937;56.096;12.664;2024-02-15T09:50:15;101666.97;;;7.60;100.00
13732;BME280;6937;56.096;12.664;2024-02-15T09:52:51;101675.47;;;7.68;100.00
13732;BME280;6937;56.096;12.664;2024-02-15T09:55:17;101679.63;;;7.73;100.00
13732;BME280;6937;56.096;12.664;2024-02-15T09:57:44;101682.03;;;7.80;100.00
13732;BME280;6937;56.096;12.664;2024-02-15T10:00:10;101684.25;;;7.89;100.00
13732;BME280;6937;56.096;12.664;2024-02-15T10:02:47;101673.31;;;7.95;100.00
13732;BME280;6937;56.096;12.664;2024-02-15T10:05:13;101684.69;;;7.98;100.00
13732;BME280;6937;56.096;12.664;2024-02-15T10:07:39;101687.41;;;7.97;100.00
13732;BME280;6937;56.096;12.664;2024-02-15T10:12:50;101688.06;;;8.02;100.00
13732;BME280;6937;56.096;12.664;2024-02-15T10:15:35;101694.16;;;8.04;100.00
13732;BME280;6937;56.096;12.664;2024-02-15T10:18:02;101690.50;;;8.06;100.00
13732;BME280;6937;56.096;12.664;2024-02-15T10:20:28;101692.06;;;8.10;100.00
13732;BME280;6937;56.096;12.664;2024-02-15T10:25:28;101683.09;;;8.13;100.00
13732;BME280;6937;56.096;12.664;2024-02-15T10:30:34;101681.41;;;8.10;100.00
13732;BME280;6937;56.096;12.664;2024-02-15T10:33:00;101691.88;;;8.15;100.00
13732;BME280;6937;56.096;12.664;2024-02-15T10:35:25;101702.25;;;8.21;100.00
13732;BME280;6937;56.096;12.664;2024-02-15T10:37:51;101694.25;;;8.21;100.00
13732;BME280;6937;56.096;12.664;2024-02-15T10:40:20;101703.72;;;8.26;100.00
13732;BME280;6937;56.096;12.664;2024-02-15T10:42:51;101706.22;;;8.31;100.00
13732;BME280;6937;56.096;12.664;2024-02-15T10:45:17;101697.28;;;8.32;100.00
13732;BME280;6937;56.096;12.664;2024-02-15T10:47:46;101694.31;;;8.38;100.00
13732;BME280;6937;56.096;12.664;2024-02-15T10:50:14;101694.31;;;8.38;100.00
13732;BME280;6937;56.096;12.664;2024-02-15T10:52:51;101691.44;;;8.43;100.00
13732;BME280;6937;56.096;12.664;2024-02-15T10:57:51;101681.28;;;8.51;100.00
13732;BME280;6937;56.096;12.664;2024-02-15T11:00:21;101682.13;;;8.51;100.00
13732;BME280;6937;56.096;12.664;2024-02-15T11:03:00;101667.81;;;8.54;100.00
13732;BME280;6937;56.096;12.664;2024-02-15T11:05:36;101677.44;;;8.56;100.00
13732;BME280;6937;56.096;12.664;2024-02-15T11:08:08;101674.72;;;8.58;100.00
13732;BME280;6937;56.096;12.664;2024-02-15T11:10:35;101667.81;;;8.54;100.00
13732;BME280;6937;56.096;12.664;2024-02-15T11:13:02;101678.69;;;8.49;100.00
13732;BME280;6937;56.096;12.664;2024-02-15T11:15:57;101674.06;;;8.53;100.00
13732;BME280;6937;56.096;12.664;2024-02-15T11:18:46;101672.16;;;8.55;100.00
13732;BME280;6937;56.096;12.664;2024-02-15T11:21:15;101670.09;;;8.61;100.00
13732;BME280;6937;56.096;12.664;2024-02-15T11:23:42;101671.72;;;8.64;100.00
13732;BME280;6937;56.096;12.664;2024-02-15T11:26:43;101667.75;;;8.72;100.00
13732;BME280;6937;56.096;12.664;2024-02-15T11:29:47;101670.03;;;8.80;100.00
13732;BME280;6937;56.096;12.664;2024-02-15T11:32:42;101672.22;;;8.89;100.00
13732;BME280;6937;56.096;12.664;2024-02-15T11:35:22;101670.41;;;8.90;100.00
13732;BME280;6937;56.096;12.664;2024-02-15T11:43:07;101662.34;;;8.91;100.00
13732;BME280;6937;56.096;12.664;2024-02-15T11:45:33;101669.53;;;8.89;100.00
13732;BME280;6937;56.096;12.664;2024-02-15T11:48:07;101655.06;;;8.95;100.00
13732;BME280;6937;56.096;12.664;2024-02-15T11:50:36;101652.56;;;8.92;100.00
13732;BME280;6937;56.096;12.664;2024-02-15T11:53:04;101652.16;;;8.99;100.00
13732;BME280;6937;56.096;12.664;2024-02-15T11:55:37;101651.84;;;9.05;100.00
13732;BME280;6937;56.096;12.664;2024-02-15T11:58:04;101647.44;;;9.04;100.00
13732;BME280;6937;56.096;12.664;2024-02-15T12:00:50;101650.97;;;9.05;100.00
13732;BME280;6937;56.096;12.664;2024-02-15T12:03:33;101661.84;;;9.00;100.00
13732;BME280;6937;56.096;12.664;2024-02-15T12:06:18;101662.66;;;9.02;100.00
13732;BME280;6937;56.096;12.664;2024-02-15T12:09:02;101676.06;;;9.18;100.00
13732;BME280;6937;56.096;12.664;2024-02-15T12:11:46;101668.06;;;9.18;100.00
13732;BME280;6937;56.096;12.664;2024-02-15T12:14:30;101667.03;;;9.20;100.00
13732;BME280;6937;56.096;12.664;2024-02-15T12:17:14;101672.19;;;9.23;100.00
13732;BME280;6937;56.096;12.664;2024-02-15T12:20:03;101663.44;;;9.21;100.00
13732;BME280;6937;56.096;12.664;2024-02-15T12:22:39;101660.66;;;9.23;100.00
13732;BME280;6937;56.096;12.664;2024-02-15T12:25:06;101662.34;;;9.26;100.00
13732;BME280;6937;56.096;12.664;2024-02-15T12:27:39;101658.22;;;9.18;100.00
13732;BME280;6937;56.096;12.664;2024-02-15T12:30:05;101661.63;;;9.22;100.00
13732;BME280;6937;56.096;12.664;2024-02-15T12:32:32;101664.03;;;9.27;100.00
13732;BME280;6937;56.096;12.664;2024-02-15T12:35:12;101669.94;;;9.33;100.00
13732;BME280;6937;56.096;12.664;2024-02-15T12:38:02;101675.63;;;9.43;100.00
13732;BME280;6937;56.096;12.664;2024-02-15T12:40:34;101669.34;;;9.44;100.00
13732;BME280;6937;56.096;12.664;2024-02-15T12:43:00;101676.41;;;9.45;100.00
13732;BME280;6937;56.096;12.664;2024-02-15T12:45:26;101669.25;;;9.45;100.00
13732;BME280;6937;56.096;12.664;2024-02-15T12:47:55;101664.19;;;9.41;100.00
13732;BME280;6937;56.096;12.664;2024-02-15T12:50:22;101649.44;;;9.34;100.00
13732;BME280;6937;56.096;12.664;2024-02-15T12:52:49;101652.03;;;9.35;100.00
13732;BME280;6937;56.096;12.664;2024-02-15T12:55:19;101643.91;;;9.21;100.00
13732;BME280;6937;56.096;12.664;2024-02-15T12:57:51;101650.22;;;9.18;100.00
13732;BME280;6937;56.096;12.664;2024-02-15T13:00:35;101645.00;;;9.17;100.00
13732;BME280;6937;56.096;12.664;2024-02-15T13:03:04;101648.53;;;9.17;100.00
13732;BME280;6937;56.096;12.664;2024-02-15T13:05:31;101648.78;;;9.13;100.00
13732;BME280;6937;56.096;12.664;2024-02-15T13:07:57;101654.63;;;9.19;100.00
13732;BME280;6937;56.096;12.664;2024-02-15T13:10:23;101646.09;;;9.13;100.00